createdAt,value
2017-07-30T00:01:53.201Z,99.90
2017-07-30T00:04:20.725Z,99.90
2017-07-30T00:06:48.249Z,99.90
2017-07-30T00:09:15.786Z,99.90
2017-07-30T00:11:43.318Z,99.90
2017-07-30T00:14:11.142Z,99.90
2017-07-30T00:16:39.435Z,99.90
2017-07-30T00:19:06.956Z,99.90
2017-07-30T00:21:34.482Z,99.90
2017-07-30T00:24:01.993Z,99.90
2017-07-30T00:26:30.585Z,99.90
2017-07-30T00:28:58.880Z,99.90
2017-07-30T00:31:26.408Z,99.90
2017-07-30T00:33:53.949Z,99.90
2017-07-30T00:36:21.507Z,99.90
2017-07-30T00:38:49.336Z,99.90
2017-07-30T00:41:16.844Z,99.90
2017-07-30T00:43:44.362Z,99.90
2017-07-30T00:46:11.883Z,99.90
2017-07-30T00:48:40.162Z,99.90
2017-07-30T00:51:08.743Z,99.90
2017-07-30T00:53:37.037Z,99.90
2017-07-30T00:56:04.561Z,99.90
2017-07-30T00:58:32.099Z,99.90
2017-07-30T01:00:59.620Z,99.90
2017-07-30T01:03:27.489Z,99.90
2017-07-30T01:05:55.007Z,99.90
2017-07-30T01:08:22.521Z,99.90
2017-07-30T01:10:50.052Z,99.90
2017-07-30T01:13:17.585Z,99.90
2017-07-30T01:15:45.516Z,99.90
2017-07-30T01:18:13.027Z,99.90
2017-07-30T01:20:40.551Z,99.90
2017-07-30T01:23:08.193Z,99.90
2017-07-30T01:25:35.698Z,99.90
2017-07-30T01:28:03.507Z,99.90
2017-07-30T01:30:31.019Z,99.90
2017-07-30T01:32:58.570Z,99.90
2017-07-30T01:35:26.091Z,99.90
2017-07-30T01:37:53.619Z,99.90
2017-07-30T01:40:22.274Z,99.90
2017-07-30T01:42:49.795Z,99.90
2017-07-30T01:45:17.293Z,99.90
2017-07-30T01:47:44.843Z,99.90
2017-07-30T01:50:12.375Z,99.90
2017-07-30T01:52:40.295Z,99.90
2017-07-30T01:55:07.828Z,99.90
2017-07-30T01:57:35.336Z,99.90
2017-07-30T02:00:03.217Z,99.90
2017-07-30T02:02:30.730Z,99.90
2017-07-30T02:04:58.262Z,99.90
2017-07-30T02:07:26.090Z,99.90
2017-07-30T02:09:53.618Z,99.90
2017-07-30T02:12:21.155Z,99.90
2017-07-30T02:14:48.679Z,99.90
2017-07-30T02:17:16.195Z,99.90
2017-07-30T02:19:44.011Z,99.90
2017-07-30T02:22:11.528Z,99.90
2017-07-30T02:24:39.065Z,99.90
2017-07-30T02:27:06.596Z,99.90
2017-07-30T02:29:34.093Z,99.90
2017-07-30T02:32:01.883Z,99.90
2017-07-30T02:34:30.172Z,99.90
2017-07-30T02:36:57.688Z,99.90
2017-07-30T02:39:25.227Z,99.90
2017-07-30T02:41:52.750Z,99.90
2017-07-30T02:44:20.549Z,99.90
2017-07-30T02:46:48.067Z,99.90
2017-07-30T02:49:16.360Z,99.90
2017-07-30T02:51:43.887Z,99.90
2017-07-30T02:54:11.415Z,99.90
2017-07-30T02:56:39.199Z,99.90
2017-07-30T02:59:06.730Z,99.90
2017-07-30T03:01:34.250Z,99.90
2017-07-30T03:04:02.539Z,99.90
2017-07-30T03:06:30.059Z,99.90
2017-07-30T03:08:57.839Z,99.90
2017-07-30T03:11:25.355Z,99.90
2017-07-30T03:13:52.864Z,99.90
2017-07-30T03:16:21.175Z,99.90
2017-07-30T03:18:48.679Z,99.90
2017-07-30T03:21:16.493Z,99.90
2017-07-30T03:23:44.026Z,99.90
2017-07-30T03:26:12.325Z,99.90
2017-07-30T03:28:40.028Z,99.90
2017-07-30T03:31:07.554Z,99.90
2017-07-30T03:33:35.359Z,99.90
2017-07-30T03:36:02.878Z,99.90
2017-07-30T03:38:30.394Z,99.90
2017-07-30T03:40:57.932Z,99.90
2017-07-30T03:43:25.442Z,99.90
2017-07-30T03:45:54.091Z,99.90
2017-07-30T03:48:21.694Z,99.90
2017-07-30T03:50:49.252Z,99.90
2017-07-30T03:53:16.786Z,99.90
2017-07-30T03:55:44.289Z,99.90
2017-07-30T03:58:12.152Z,99.90
2017-07-30T04:00:39.675Z,99.90
2017-07-30T04:03:07.965Z,99.90
2017-07-30T04:05:35.555Z,99.90
2017-07-30T04:08:03.079Z,99.90
2017-07-30T04:10:31.691Z,99.90
2017-07-30T04:12:59.196Z,99.90
2017-07-30T04:15:26.802Z,99.90
2017-07-30T04:17:54.330Z,99.90
2017-07-30T04:20:21.829Z,99.90
2017-07-30T04:22:49.697Z,99.90
2017-07-30T04:25:17.221Z,99.90
2017-07-30T04:27:44.823Z,99.90
2017-07-30T04:30:12.348Z,99.90
2017-07-30T04:32:40.643Z,99.90
2017-07-30T04:35:08.534Z,99.90
2017-07-30T04:37:36.056Z,99.90
2017-07-30T04:40:03.592Z,99.90
2017-07-30T04:42:31.114Z,99.90
2017-07-30T04:44:58.617Z,99.90
2017-07-30T04:47:26.526Z,99.90
2017-07-30T04:49:54.040Z,99.90
2017-07-30T04:52:21.568Z,99.90
2017-07-30T04:54:49.106Z,99.90
2017-07-30T04:57:16.673Z,99.90
2017-07-30T04:59:44.468Z,99.90
2017-07-30T05:02:11.965Z,99.90
2017-07-30T05:04:39.484Z,99.90
2017-07-30T05:07:06.992Z,99.90
2017-07-30T05:09:34.511Z,99.90
2017-07-30T05:12:02.339Z,99.90
2017-07-30T05:14:29.882Z,99.90
2017-07-30T05:16:57.405Z,99.90
2017-07-30T05:19:24.944Z,99.90
2017-07-30T05:21:52.474Z,99.90
2017-07-30T05:24:20.317Z,99.90
2017-07-30T05:26:47.875Z,99.90
2017-07-30T05:29:15.405Z,99.90
2017-07-30T05:31:42.934Z,99.90
2017-07-30T05:34:10.476Z,99.90
2017-07-30T05:36:38.329Z,99.90
2017-07-30T05:39:05.849Z,99.90
2017-07-30T05:41:34.225Z,99.90
2017-07-30T05:44:01.762Z,99.90
2017-07-30T05:46:29.400Z,99.90
2017-07-30T05:48:57.200Z,99.90
2017-07-30T05:51:24.737Z,99.90
2017-07-30T05:53:52.244Z,99.90
2017-07-30T05:56:20.525Z,99.90
2017-07-30T05:58:48.896Z,99.90
2017-07-30T06:01:16.816Z,99.90
2017-07-30T06:03:44.338Z,99.90
2017-07-30T06:06:12.624Z,99.90
2017-07-30T06:08:40.151Z,99.90
2017-07-30T06:11:07.665Z,99.90
2017-07-30T06:13:35.476Z,99.90
2017-07-30T06:16:02.995Z,99.90
2017-07-30T06:18:30.535Z,99.90
2017-07-30T06:20:58.069Z,99.90
2017-07-30T06:23:26.347Z,99.90
2017-07-30T06:25:54.970Z,99.90
2017-07-30T06:28:22.480Z,99.90
2017-07-30T06:30:50.045Z,99.90
2017-07-30T06:33:17.712Z,99.90
2017-07-30T06:35:45.991Z,99.90
2017-07-30T06:38:14.537Z,99.90
2017-07-30T06:40:42.055Z,99.90
2017-07-30T06:43:09.586Z,99.90
2017-07-30T06:45:37.888Z,99.90
2017-07-30T06:48:05.405Z,99.90
2017-07-30T06:50:33.218Z,99.90
2017-07-30T06:53:00.829Z,99.90
2017-07-30T06:55:28.328Z,99.90
2017-07-30T06:57:56.687Z,99.90
2017-07-30T07:00:24.960Z,99.90
2017-07-30T07:02:52.877Z,99.90
2017-07-30T07:05:20.395Z,99.90
2017-07-30T07:07:48.680Z,99.90
2017-07-30T07:10:16.983Z,99.90
2017-07-30T07:12:44.506Z,99.90
2017-07-30T07:15:13.092Z,99.90
2017-07-30T07:17:41.366Z,99.90
2017-07-30T07:20:08.867Z,99.90
2017-07-30T07:22:36.401Z,99.90
2017-07-30T07:25:04.706Z,99.90
2017-07-30T07:27:32.697Z,99.90
2017-07-30T07:30:00.224Z,99.90
2017-07-30T07:32:27.744Z,99.90
2017-07-30T07:34:55.266Z,99.90
2017-07-30T07:37:22.787Z,99.90
2017-07-30T07:39:51.419Z,99.90
2017-07-30T07:42:18.961Z,99.90
2017-07-30T07:44:46.479Z,99.90
2017-07-30T07:47:14.815Z,99.90
2017-07-30T07:49:42.341Z,99.90
2017-07-30T07:52:09.865Z,99.90
2017-07-30T07:54:37.782Z,99.90
2017-07-30T07:57:05.313Z,99.90
2017-07-30T07:59:33.600Z,99.90
2017-07-30T08:02:01.478Z,99.90
2017-07-30T08:04:29.007Z,99.90
2017-07-30T08:06:57.286Z,99.90
2017-07-30T08:09:25.583Z,99.90
2017-07-30T08:11:53.094Z,99.90
2017-07-30T08:14:20.915Z,99.90
2017-07-30T08:16:48.426Z,99.90
2017-07-30T08:19:15.948Z,99.90
2017-07-30T08:21:43.751Z,99.90
2017-07-30T08:24:11.309Z,99.90
2017-07-30T08:26:38.824Z,99.90
2017-07-30T08:29:06.701Z,99.90
2017-07-30T08:31:34.229Z,99.90
2017-07-30T08:34:01.758Z,99.90
2017-07-30T08:36:29.573Z,99.90
2017-07-30T08:38:57.096Z,99.90
2017-07-30T08:41:25.381Z,99.90
2017-07-30T08:43:54.010Z,99.90
2017-07-30T08:46:21.537Z,99.90
2017-07-30T08:48:49.058Z,99.90
2017-07-30T08:51:16.895Z,99.90
2017-07-30T08:53:44.411Z,99.90
2017-07-30T08:56:13.486Z,99.90
2017-07-30T08:58:41.407Z,99.90
2017-07-30T09:01:08.923Z,99.90
2017-07-30T09:03:36.459Z,99.90
2017-07-30T09:06:04.296Z,99.90
2017-07-30T09:08:31.815Z,99.90
2017-07-30T09:11:00.127Z,99.90
2017-07-30T09:13:27.998Z,99.90
2017-07-30T09:15:55.523Z,99.90
2017-07-30T09:18:23.851Z,99.90
2017-07-30T09:20:51.698Z,99.90
2017-07-30T09:23:19.306Z,99.90
2017-07-30T09:25:46.842Z,99.90
2017-07-30T09:28:14.720Z,99.90
2017-07-30T09:30:42.244Z,99.90
2017-07-30T09:33:09.774Z,99.90
2017-07-30T09:35:38.106Z,99.90
2017-07-30T09:38:05.637Z,99.90
2017-07-30T09:40:33.434Z,99.90
2017-07-30T09:43:00.967Z,99.90
2017-07-30T09:45:28.478Z,99.90
2017-07-30T09:47:56.021Z,99.90
2017-07-30T09:50:23.544Z,99.90
2017-07-30T09:52:51.412Z,99.90
2017-07-30T09:55:18.928Z,99.90
2017-07-30T09:57:46.448Z,99.90
2017-07-30T10:00:13.979Z,99.90
2017-07-30T10:02:41.503Z,99.70
2017-07-30T10:05:09.134Z,99.90
2017-07-30T10:07:36.701Z,99.90
2017-07-30T10:10:04.213Z,99.90
2017-07-30T10:12:31.963Z,99.90
2017-07-30T10:15:00.246Z,99.90
2017-07-30T10:17:28.670Z,99.90
2017-07-30T10:19:56.177Z,99.90
2017-07-30T10:22:23.695Z,99.90
2017-07-30T10:24:51.334Z,99.30
2017-07-30T10:27:18.839Z,99.90
2017-07-30T10:29:46.362Z,98.90
2017-07-30T10:32:13.883Z,99.00
2017-07-30T10:34:42.611Z,99.00
2017-07-30T10:37:10.143Z,98.90
2017-07-30T10:39:37.665Z,99.30
2017-07-30T10:42:05.255Z,99.50
2017-07-30T10:44:33.600Z,98.80
2017-07-30T10:47:01.449Z,99.90
2017-07-30T10:49:28.984Z,98.00
2017-07-30T10:51:56.504Z,99.10
2017-07-30T10:54:25.468Z,97.50
2017-07-30T10:56:53.141Z,97.50
2017-07-30T10:59:20.993Z,98.00
2017-07-30T11:01:48.667Z,98.40
2017-07-30T11:04:16.175Z,97.30
2017-07-30T11:06:43.703Z,97.50
2017-07-30T11:09:11.979Z,97.10
2017-07-30T11:11:40.933Z,97.90
2017-07-30T11:14:08.468Z,98.00
2017-07-30T11:16:35.979Z,98.20
2017-07-30T11:19:03.571Z,96.30
2017-07-30T11:21:31.136Z,96.60
2017-07-30T11:23:58.952Z,97.00
2017-07-30T11:26:26.587Z,98.10
2017-07-30T11:28:54.104Z,97.50
2017-07-30T11:31:21.900Z,95.90
2017-07-30T11:33:49.436Z,96.50
2017-07-30T11:36:17.733Z,96.40
2017-07-30T11:38:45.529Z,96.30
2017-07-30T11:41:13.132Z,96.00
2017-07-30T11:43:41.042Z,96.70
2017-07-30T11:46:08.956Z,96.30
2017-07-30T11:48:38.059Z,97.10
2017-07-30T11:51:05.882Z,97.10
2017-07-30T11:53:33.515Z,97.10
2017-07-30T11:56:01.127Z,96.50
2017-07-30T11:58:28.671Z,95.80
2017-07-30T12:00:56.173Z,94.70
2017-07-30T12:03:23.999Z,94.60
2017-07-30T12:05:51.514Z,94.40
2017-07-30T12:08:19.211Z,94.20
2017-07-30T12:10:47.254Z,94.20
2017-07-30T12:13:14.779Z,92.70
2017-07-30T12:15:42.559Z,93.00
2017-07-30T12:18:11.059Z,94.10
2017-07-30T12:20:38.569Z,94.20
2017-07-30T12:23:06.118Z,93.70
2017-07-30T12:25:34.387Z,92.30
2017-07-30T12:28:02.239Z,93.00
2017-07-30T12:30:29.905Z,91.20
2017-07-30T12:32:58.004Z,90.90
2017-07-30T12:35:25.606Z,91.10
2017-07-30T12:37:53.905Z,90.70
2017-07-30T12:40:21.772Z,90.90
2017-07-30T12:42:49.457Z,93.40
2017-07-30T12:45:17.154Z,90.10
2017-07-30T12:47:44.857Z,90.40
2017-07-30T12:50:12.542Z,89.60
2017-07-30T12:52:44.858Z,89.10
2017-07-30T12:55:13.278Z,88.00
2017-07-30T12:57:40.794Z,88.40
2017-07-30T13:00:08.314Z,86.20
2017-07-30T13:02:35.979Z,85.40
2017-07-30T13:05:03.994Z,87.50
2017-07-30T13:07:32.270Z,84.00
2017-07-30T13:10:00.557Z,84.80
2017-07-30T13:12:28.969Z,85.50
2017-07-30T13:14:56.497Z,85.60
2017-07-30T13:17:25.052Z,82.60
2017-07-30T13:19:52.595Z,82.30
2017-07-30T13:22:20.115Z,83.00
2017-07-30T13:24:47.661Z,81.40
2017-07-30T13:27:15.328Z,83.00
2017-07-30T13:29:43.220Z,81.70
2017-07-30T13:32:10.864Z,79.50
2017-07-30T13:34:38.547Z,78.30
2017-07-30T13:37:06.159Z,78.90
2017-07-30T13:39:34.439Z,77.80
2017-07-30T13:42:02.752Z,80.80
2017-07-30T13:44:30.285Z,80.60
2017-07-30T13:46:59.655Z,79.70
2017-07-30T13:49:27.176Z,76.40
2017-07-30T13:51:54.711Z,73.50
2017-07-30T13:54:22.373Z,76.50
2017-07-30T13:56:50.049Z,73.80
2017-07-30T13:59:17.958Z,74.00
2017-07-30T14:01:45.462Z,73.10
2017-07-30T14:04:13.860Z,73.40
2017-07-30T14:06:41.541Z,73.20
2017-07-30T14:09:09.052Z,71.40
2017-07-30T14:11:37.654Z,72.90
2017-07-30T14:14:05.173Z,73.00
2017-07-30T14:16:32.707Z,70.30
2017-07-30T14:19:00.239Z,70.80
2017-07-30T14:21:27.749Z,73.80
2017-07-30T14:23:55.532Z,73.80
2017-07-30T14:26:23.042Z,71.50
2017-07-30T14:28:50.747Z,70.00
2017-07-30T14:31:18.286Z,69.40
2017-07-30T14:33:45.824Z,70.30
2017-07-30T14:36:13.349Z,68.10
2017-07-30T14:38:40.857Z,67.80
2017-07-30T14:41:08.725Z,70.50
2017-07-30T14:43:36.367Z,70.70
2017-07-30T14:46:03.904Z,67.10
2017-07-30T14:48:31.438Z,66.00
2017-07-30T14:50:58.947Z,69.00
2017-07-30T14:53:26.798Z,69.60
2017-07-30T14:55:54.387Z,66.90
2017-07-30T14:58:22.050Z,65.10
2017-07-30T15:00:49.596Z,65.90
2017-07-30T15:03:17.100Z,64.80
2017-07-30T15:05:45.133Z,67.50
2017-07-30T15:08:12.835Z,65.60
2017-07-30T15:10:40.370Z,64.80
2017-07-30T15:13:08.083Z,65.80
2017-07-30T15:15:36.835Z,63.20
2017-07-30T15:18:06.385Z,66.00
2017-07-30T15:20:34.065Z,66.20
2017-07-30T15:23:01.727Z,65.50
2017-07-30T15:25:29.266Z,65.80
2017-07-30T15:27:56.790Z,68.00
2017-07-30T15:30:24.813Z,67.40
2017-07-30T15:32:52.331Z,66.80
2017-07-30T15:35:20.825Z,66.40
2017-07-30T15:37:48.555Z,66.00
2017-07-30T15:40:16.085Z,64.80
2017-07-30T15:42:43.978Z,65.00
2017-07-30T15:45:11.567Z,62.40
2017-07-30T15:47:39.880Z,63.80
2017-07-30T15:50:07.856Z,62.90
2017-07-30T15:52:35.393Z,63.20
2017-07-30T15:55:03.413Z,64.10
2017-07-30T15:57:31.071Z,63.60
2017-07-30T15:59:58.611Z,64.20
2017-07-30T16:02:26.227Z,62.40
2017-07-30T16:04:53.781Z,63.60
2017-07-30T16:07:44.268Z,63.20
2017-07-30T16:10:13.476Z,64.20
2017-07-30T16:12:45.367Z,62.80
2017-07-30T16:18:06.124Z,60.70
2017-07-30T16:20:33.662Z,61.90
2017-07-30T16:26:14.788Z,62.50
2017-07-30T16:28:42.326Z,61.60
2017-07-30T16:31:10.121Z,62.00
2017-07-30T16:33:45.351Z,62.30
2017-07-30T16:38:45.909Z,62.40
2017-07-30T17:01:27.185Z,62.10
2017-07-30T17:03:55.849Z,61.20
2017-07-30T17:06:24.075Z,62.90
2017-07-30T17:08:51.615Z,61.40
2017-07-30T17:11:19.161Z,61.80
2017-07-30T17:13:47.053Z,61.10
2017-07-30T17:16:14.792Z,61.60
2017-07-30T17:18:42.456Z,62.50
2017-07-30T17:21:10.117Z,61.20
2017-07-30T17:23:37.894Z,62.30
2017-07-30T17:26:05.738Z,62.40
2017-07-30T17:28:33.386Z,61.70
2017-07-30T17:31:00.934Z,61.70
2017-07-30T17:33:28.511Z,61.80
2017-07-30T17:35:56.038Z,62.60
2017-07-30T17:38:23.858Z,63.10
2017-07-30T17:40:51.514Z,64.20
2017-07-30T17:43:19.232Z,64.10
2017-07-30T17:45:46.975Z,64.40
2017-07-30T17:48:14.498Z,64.10
2017-07-30T17:50:42.428Z,64.40
2017-07-30T17:53:10.891Z,64.90
2017-07-30T17:55:38.627Z,64.80
2017-07-30T17:58:06.166Z,66.00
2017-07-30T18:00:33.703Z,66.50
2017-07-30T18:03:01.791Z,66.20
2017-07-30T18:05:29.304Z,66.80
2017-07-30T18:07:56.867Z,67.40
2017-07-30T18:10:24.415Z,67.30
2017-07-30T18:12:51.953Z,67.80
2017-07-30T18:15:39.127Z,68.00
2017-07-30T18:18:07.728Z,69.10
2017-07-30T18:23:42.927Z,68.80
2017-07-30T18:26:16.199Z,69.00
2017-07-30T18:28:43.843Z,69.40
2017-07-30T18:31:12.825Z,69.50
2017-07-30T18:33:42.217Z,70.00
2017-07-30T18:44:52.059Z,70.90
2017-07-30T18:47:19.605Z,71.00
2017-07-30T18:49:47.891Z,71.50
2017-07-30T18:52:22.659Z,71.40
2017-07-30T18:57:52.986Z,72.00
2017-07-30T19:02:57.513Z,72.80
2017-07-30T19:08:25.422Z,74.20
2017-07-30T19:10:53.001Z,73.40
2017-07-30T19:13:20.903Z,74.00
2017-07-30T19:27:45.567Z,76.20
2017-07-30T19:30:13.874Z,76.70
2017-07-30T19:32:41.957Z,76.60
2017-07-30T19:35:10.259Z,77.50
2017-07-30T19:37:37.960Z,77.70
2017-07-30T19:40:05.747Z,78.00
2017-07-30T19:42:52.745Z,78.00
2017-07-30T19:45:21.379Z,79.40
2017-07-30T19:50:42.620Z,79.10
2017-07-30T19:53:10.229Z,79.30
2017-07-30T19:55:38.985Z,80.70
2017-07-30T19:58:06.489Z,80.60
2017-07-30T20:00:34.183Z,80.80
2017-07-30T20:06:07.259Z,81.20
2017-07-30T20:08:35.096Z,81.40
2017-07-30T20:11:02.633Z,82.30
2017-07-30T20:13:30.295Z,82.00
2017-07-30T20:15:58.232Z,82.70
2017-07-30T20:18:25.867Z,83.10
2017-07-30T20:20:53.670Z,83.00
2017-07-30T20:23:25.287Z,82.50
2017-07-30T20:25:53.911Z,83.50
2017-07-30T20:28:21.428Z,82.70
2017-07-30T20:30:49.841Z,83.00
2017-07-30T20:33:17.411Z,83.00
2017-07-30T20:35:44.917Z,83.20
2017-07-30T20:38:12.768Z,83.70
2017-07-30T20:40:40.354Z,83.80
2017-07-30T20:43:08.806Z,84.60
2017-07-30T20:45:36.504Z,84.60
2017-07-30T20:48:04.791Z,85.60
2017-07-30T20:50:32.579Z,85.40
2017-07-30T20:53:00.099Z,85.80
2017-07-30T20:55:27.623Z,86.40
2017-07-30T20:57:55.161Z,86.70
2017-07-30T21:00:22.692Z,87.80
2017-07-30T21:02:50.603Z,88.20
2017-07-30T21:05:18.123Z,88.40
2017-07-30T21:07:45.782Z,89.20
2017-07-30T21:10:13.487Z,89.40
2017-07-30T21:12:41.140Z,89.70
2017-07-30T21:15:08.992Z,90.10
2017-07-30T21:17:36.503Z,90.20
2017-07-30T21:20:04.020Z,90.20
2017-07-30T21:22:31.673Z,90.20
2017-07-30T21:24:59.191Z,90.40
2017-07-30T21:27:27.020Z,90.50
2017-07-30T21:29:54.666Z,91.00
2017-07-30T21:32:22.183Z,90.80
2017-07-30T21:34:50.636Z,90.80
2017-07-30T21:37:18.264Z,90.70
2017-07-30T21:39:46.245Z,91.10
2017-07-30T21:42:14.097Z,91.40
2017-07-30T21:44:41.782Z,91.40
2017-07-30T21:47:09.431Z,91.50
2017-07-30T21:49:37.057Z,91.70
2017-07-30T21:52:05.686Z,91.60
2017-07-30T21:54:33.209Z,91.60
2017-07-30T21:57:00.723Z,91.90
2017-07-30T21:59:28.409Z,92.00
2017-07-30T22:01:55.917Z,92.10
2017-07-30T22:04:23.927Z,92.60
2017-07-30T22:06:51.478Z,92.40
2017-07-30T22:09:19.052Z,92.20
2017-07-30T22:11:46.728Z,92.40
2017-07-30T22:14:15.023Z,92.90
2017-07-30T22:16:43.060Z,92.90
2017-07-30T22:19:10.597Z,92.80
2017-07-30T22:21:38.124Z,92.80
2017-07-30T22:24:05.648Z,92.90
2017-07-30T22:26:33.949Z,93.30
2017-07-30T22:29:01.841Z,93.00
2017-07-30T22:31:29.538Z,93.30
2017-07-30T22:33:57.205Z,93.70
2017-07-30T22:36:25.263Z,93.80
2017-07-30T22:38:52.787Z,93.80
2017-07-30T22:41:20.449Z,93.90
2017-07-30T22:43:48.146Z,94.90
2017-07-30T22:46:15.661Z,94.30
2017-07-30T22:48:43.650Z,94.80
2017-07-30T22:51:11.192Z,96.10
2017-07-30T22:53:38.720Z,95.60
2017-07-30T22:56:06.251Z,95.20
2017-07-30T22:58:33.773Z,95.20
2017-07-30T23:01:01.832Z,95.10
2017-07-30T23:03:30.121Z,95.20
2017-07-30T23:05:57.795Z,95.20
2017-07-30T23:08:25.331Z,95.40
2017-07-30T23:10:52.848Z,96.20
2017-07-30T23:13:20.632Z,96.10
2017-07-30T23:15:48.126Z,96.00
2017-07-30T23:18:15.824Z,96.10
2017-07-30T23:20:43.352Z,96.10
2017-07-30T23:23:11.056Z,96.30
2017-07-30T23:25:39.064Z,96.70
2017-07-30T23:28:07.394Z,96.50
2017-07-30T23:30:34.920Z,96.50
2017-07-30T23:33:02.458Z,96.70
2017-07-30T23:35:30.765Z,97.20
2017-07-30T23:37:58.598Z,97.20
2017-07-30T23:40:26.876Z,97.50
2017-07-30T23:42:55.323Z,98.40
2017-07-30T23:45:22.870Z,98.40
2017-07-30T23:47:50.396Z,97.40
2017-07-30T23:50:18.289Z,98.50
2017-07-30T23:52:45.818Z,99.50
2017-07-30T23:55:13.330Z,99.60
2017-07-30T23:57:42.428Z,99.90
